Time;durP1;ratioP1;P1;durP2;ratioP2;P2;SDS_P1;SDS_P2;PMS_P1;PMS_P2;Temp;Humidity;BMP_temperature;BMP_pressure;BME280_temperature;BME280_humidity;BME280_pressure;Samples;Min_cycle;Max_cycle;Signal;HPM_P1;HPM_P2
2024/04/18 00:01:39;;;;;;;43.78;31.40;;;4.70;99.90;;;;;;5408423;26;20010;-77
2024/04/18 00:04:06;;;;;;;41.78;30.73;;;4.60;99.90;;;;;;5325114;26;19999;-76
2024/04/18 00:06:34;;;;;;;41.60;31.15;;;4.60;99.90;;;;;;5385221;26;19996;-76
2024/04/18 00:09:06;;;;;;;52.50;32.53;;;4.60;99.90;;;;;;5353946;26;20393;-77
2024/04/18 00:11:33;;;;;;;45.53;31.65;;;4.60;99.90;;;;;;5382896;26;19999;-77
2024/04/18 00:14:11;;;;;;;44.08;32.42;;;4.70;99.90;;;;;;5392042;26;20076;-76
2024/04/18 00:16:38;;;;;;;46.58;34.00;;;4.80;99.90;;;;;;5385242;26;20612;-76
2024/04/18 00:19:18;;;;;;;42.05;33.53;;;4.80;99.90;;;;;;5385871;26;20062;-76
2024/04/18 00:21:58;;;;;;;47.22;34.58;;;4.90;99.90;;;;;;5367613;26;22392;-77
2024/04/18 00:24:28;;;;;;;50.10;34.05;;;4.90;99.90;;;;;;5385538;26;20019;-76
2024/04/18 00:26:56;;;;;;;43.88;32.38;;;4.90;99.90;;;;;;5341551;26;20073;-76
2024/04/18 00:29:35;;;;;;;47.28;34.50;;;4.90;99.90;;;;;;5373270;26;20004;-75
2024/04/18 00:32:10;;;;;;;54.20;34.75;;;5.00;99.90;;;;;;5375902;26;20008;-75
2024/04/18 00:34:37;;;;;;;45.10;33.17;;;5.00;99.90;;;;;;5437201;26;20000;-76
2024/04/18 00:37:04;;;;;;;46.15;33.03;;;4.90;99.90;;;;;;5380753;26;20053;-76
2024/04/18 00:39:51;;;;;;;48.45;32.58;;;4.90;99.90;;;;;;5380138;26;20614;-76
2024/04/18 00:42:40;;;;;;;50.00;33.30;;;4.80;99.90;;;;;;5387377;26;20008;-76
2024/04/18 00:45:07;;;;;;;52.85;33.55;;;4.80;99.90;;;;;;5386152;26;20073;-76
2024/04/18 00:47:47;;;;;;;56.25;33.75;;;4.80;99.90;;;;;;5375326;26;21249;-77
2024/04/18 00:50:16;;;;;;;56.85;35.03;;;4.80;99.90;;;;;;5377678;26;20061;-76
2024/04/18 00:52:45;;;;;;;52.05;33.63;;;4.80;99.90;;;;;;5386580;26;19995;-77
2024/04/18 00:55:25;;;;;;;43.17;30.38;;;4.80;99.90;;;;;;5376517;26;19999;-76
2024/04/18 00:58:12;;;;;;;34.60;28.30;;;4.80;99.90;;;;;;5429776;26;20110;-76
2024/04/18 01:00:44;;;;;;;30.17;23.67;;;4.80;99.90;;;;;;5345165;26;20008;-76
2024/04/18 01:03:31;;;;;;;28.70;22.55;;;4.70;99.90;;;;;;5383459;26;19999;-76
2024/04/18 01:06:08;;;;;;;25.35;22.77;;;4.80;99.90;;;;;;5374504;26;20078;-77
2024/04/18 01:08:55;;;;;;;24.92;22.33;;;4.70;99.90;;;;;;5377406;26;19995;-77
2024/04/18 01:11:29;;;;;;;25.65;23.00;;;4.70;99.90;;;;;;5403136;26;20010;-76
2024/04/18 01:13:58;;;;;;;24.23;21.88;;;4.60;99.90;;;;;;5370107;26;20000;-76
2024/04/18 01:16:29;;;;;;;23.45;21.05;;;4.60;99.90;;;;;;5385866;26;20428;-76
2024/04/18 01:18:57;;;;;;;22.00;19.90;;;4.60;99.90;;;;;;5376134;26;21119;-77
2024/04/18 01:21:24;;;;;;;21.95;19.95;;;4.60;99.90;;;;;;5443420;26;20442;-77
2024/04/18 01:23:51;;;;;;;21.02;19.13;;;4.70;99.90;;;;;;5384409;26;20073;-75
2024/04/18 01:26:19;;;;;;;20.48;18.67;;;4.80;99.90;;;;;;5386133;26;20003;-76
2024/04/18 01:28:46;;;;;;;20.98;19.17;;;4.60;99.90;;;;;;5339341;26;20054;-76
2024/04/18 01:31:30;;;;;;;22.45;20.40;;;4.60;99.90;;;;;;5381549;26;20030;-76
2024/04/18 01:33:57;;;;;;;23.90;21.50;;;4.60;99.90;;;;;;5375188;26;20748;-76
2024/04/18 01:36:25;;;;;;;24.27;21.90;;;4.60;99.90;;;;;;5369967;26;19999;-76
2024/04/18 01:38:52;;;;;;;24.35;21.95;;;4.70;99.90;;;;;;5369813;26;20023;-76
2024/04/18 01:41:29;;;;;;;23.92;21.55;;;4.80;99.90;;;;;;5380013;26;20035;-76
2024/04/18 01:43:59;;;;;;;23.98;21.63;;;4.70;99.90;;;;;;5374612;26;20415;-76
2024/04/18 01:46:45;;;;;;;27.60;23.70;;;4.70;99.90;;;;;;5378356;26;20988;-76
2024/04/18 01:49:28;;;;;;;29.15;25.02;;;4.80;99.90;;;;;;5377328;26;20055;-76
2024/04/18 01:51:56;;;;;;;27.10;24.20;;;4.80;99.90;;;;;;5322586;26;20419;-76
2024/04/18 01:54:33;;;;;;;31.83;27.58;;;4.80;99.90;;;;;;5350909;26;19997;-76
2024/04/18 01:57:01;;;;;;;31.42;25.98;;;4.90;99.90;;;;;;5367779;26;20526;-76
2024/04/18 01:59:47;;;;;;;33.00;27.60;;;4.90;99.90;;;;;;5350095;26;20007;-76
2024/04/18 02:02:14;;;;;;;31.15;25.05;;;4.80;99.90;;;;;;5326547;26;20015;-76
2024/04/18 02:05:01;;;;;;;40.60;28.30;;;4.90;99.90;;;;;;5381238;26;20003;-77
2024/04/18 02:07:44;;;;;;;38.53;30.63;;;4.80;99.90;;;;;;5347676;26;20052;-76
2024/04/18 02:10:11;;;;;;;49.33;34.30;;;4.90;99.90;;;;;;5373668;26;20012;-76
2024/04/18 02:12:57;;;;;;;45.50;32.47;;;4.90;99.90;;;;;;5375810;26;20004;-76
2024/04/18 02:15:42;;;;;;;55.42;35.55;;;4.90;99.90;;;;;;5381005;26;20011;-76
2024/04/18 02:18:13;;;;;;;61.17;34.25;;;4.80;99.90;;;;;;5366672;26;20942;-76
2024/04/18 02:20:41;;;;;;;69.90;38.17;;;4.70;99.90;;;;;;5382426;26;20019;-77
2024/04/18 02:23:23;;;;;;;70.40;37.88;;;4.70;99.90;;;;;;5360961;26;20007;-76
2024/04/18 02:25:50;;;;;;;70.18;37.38;;;4.70;99.90;;;;;;5375640;26;20015;-77
2024/04/18 02:28:17;;;;;;;73.50;37.72;;;4.70;99.90;;;;;;5369984;26;21692;-77
2024/04/18 02:30:45;;;;;;;70.40;36.92;;;4.60;99.90;;;;;;5351116;26;20018;-76
2024/04/18 02:33:14;;;;;;;73.88;37.83;;;4.50;99.90;;;;;;5375855;26;20015;-76
2024/04/18 02:35:47;;;;;;;64.57;39.25;;;4.50;99.90;;;;;;5381272;26;20745;-76
2024/04/18 02:38:34;;;;;;;66.70;36.28;;;4.50;99.90;;;;;;5371265;26;20367;-76
2024/04/18 02:41:07;;;;;;;69.05;35.83;;;4.60;99.90;;;;;;5367616;26;20008;-77
2024/04/18 02:43:50;;;;;;;64.95;36.17;;;4.60;99.90;;;;;;5383644;26;20273;-76
2024/04/18 02:46:18;;;;;;;61.70;36.15;;;4.70;99.90;;;;;;5376072;26;20307;-76
2024/04/18 02:49:03;;;;;;;61.58;34.85;;;4.70;99.90;;;;;;5370729;26;20008;-76
2024/04/18 02:51:30;;;;;;;64.95;37.17;;;4.70;99.90;;;;;;5381639;26;20000;-75
2024/04/18 02:54:13;;;;;;;61.80;35.38;;;4.80;99.90;;;;;;5376982;26;21720;-76
2024/04/18 02:56:41;;;;;;;52.83;35.17;;;4.80;99.90;;;;;;5377034;26;20004;-76
2024/04/18 02:59:10;;;;;;;47.63;34.17;;;4.70;99.90;;;;;;5353110;26;20084;-76
2024/04/18 03:01:47;;;;;;;50.10;33.63;;;4.60;99.90;;;;;;5352056;26;20702;-76
2024/04/18 03:04:14;;;;;;;48.25;33.53;;;4.70;99.90;;;;;;5378455;26;21898;-76
2024/04/18 03:06:41;;;;;;;47.88;33.35;;;4.70;99.90;;;;;;5373251;26;20023;-76
2024/04/18 03:09:12;;;;;;;50.85;33.83;;;4.70;99.90;;;;;;5386186;26;20003;-75
2024/04/18 03:11:52;;;;;;;51.20;33.70;;;4.60;99.90;;;;;;5359603;26;19999;-76
2024/04/18 03:14:40;;;;;;;44.25;32.55;;;4.70;99.90;;;;;;5380630;26;20007;-76
2024/04/18 03:17:07;;;;;;;44.88;30.90;;;4.70;99.90;;;;;;5383931;26;20007;-76
2024/04/18 03:19:53;;;;;;;45.47;31.40;;;4.70;99.90;;;;;;5385660;26;20003;-75
2024/04/18 03:22:25;;;;;;;40.28;30.38;;;4.60;99.90;;;;;;5327175;26;20019;-76
2024/04/18 03:24:59;;;;;;;44.03;31.33;;;4.70;99.90;;;;;;5349971;26;20074;-76
2024/04/18 03:27:30;;;;;;;45.80;32.60;;;4.70;99.90;;;;;;5383650;26;20779;-76
2024/04/18 03:29:57;;;;;;;43.63;31.17;;;4.70;99.90;;;;;;5376228;26;20015;-76
2024/04/18 03:32:37;;;;;;;49.33;32.55;;;4.70;99.90;;;;;;5375872;26;20016;-76
2024/04/18 03:35:04;;;;;;;48.28;32.53;;;4.70;99.90;;;;;;5402818;26;20488;-76
2024/04/18 03:37:36;;;;;;;55.63;34.03;;;4.60;99.90;;;;;;5379036;26;19999;-76
2024/04/18 03:40:24;;;;;;;61.03;33.72;;;4.60;99.90;;;;;;5374803;26;20012;-76
2024/04/18 03:42:59;;;;;;;52.45;34.35;;;4.60;99.90;;;;;;5353823;26;20011;-76
2024/04/18 03:45:27;;;;;;;55.05;35.28;;;4.60;99.90;;;;;;5429904;26;20081;-76
2024/04/18 03:48:14;;;;;;;57.53;36.00;;;4.60;99.90;;;;;;5375244;26;20003;-77
2024/04/18 03:50:44;;;;;;;52.53;35.40;;;4.60;99.90;;;;;;5385827;26;20008;-76
2024/04/18 03:53:17;;;;;;;55.33;36.72;;;4.60;99.90;;;;;;5376208;26;20000;-76
2024/04/18 03:55:45;;;;;;;58.03;36.45;;;4.50;99.90;;;;;;5386612;26;20000;-76
2024/04/18 03:58:13;;;;;;;57.47;36.85;;;4.60;99.90;;;;;;5345225;26;20007;-76
2024/04/18 04:00:47;;;;;;;66.70;40.40;;;4.50;99.90;;;;;;5356830;26;19996;-77
2024/04/18 04:03:14;;;;;;;68.70;39.38;;;4.60;99.90;;;;;;5385482;26;20095;-76
2024/04/18 04:05:41;;;;;;;64.72;40.15;;;4.60;99.90;;;;;;5380895;26;20000;-76
2024/04/18 04:08:09;;;;;;;66.93;40.55;;;4.60;99.90;;;;;;5401853;26;20015;-76
2024/04/18 04:10:40;;;;;;;61.30;39.13;;;4.60;99.90;;;;;;5394147;26;19995;-76
2024/04/18 04:13:08;;;;;;;68.40;38.67;;;4.70;99.90;;;;;;5385967;26;20422;-75
2024/04/18 04:15:48;;;;;;;70.65;41.17;;;4.70;99.90;;;;;;5385860;26;20004;-76
2024/04/18 04:18:35;;;;;;;72.78;40.95;;;4.70;99.90;;;;;;5393840;26;20011;-76
2024/04/18 04:21:22;;;;;;;72.72;41.42;;;4.70;99.90;;;;;;5388764;26;20836;-75
2024/04/18 04:23:52;;;;;;;71.35;40.20;;;4.70;99.90;;;;;;5389701;26;20006;-76
2024/04/18 04:26:19;;;;;;;71.65;43.45;;;4.70;99.90;;;;;;5378618;26;20004;-76
2024/04/18 04:28:46;;;;;;;82.85;44.38;;;4.80;99.90;;;;;;5374132;26;20003;-77
2024/04/18 04:31:13;;;;;;;75.25;42.47;;;4.80;99.90;;;;;;5376345;26;19999;-76
2024/04/18 04:33:41;;;;;;;79.47;43.20;;;4.80;99.90;;;;;;5433126;26;20007;-76
2024/04/18 04:36:08;;;;;;;76.57;42.75;;;4.80;99.90;;;;;;5378044;26;20000;-75
2024/04/18 04:38:38;;;;;;;77.80;40.97;;;4.70;99.90;;;;;;5376506;26;20011;-76
2024/04/18 04:41:06;;;;;;;81.82;44.83;;;4.70;99.90;;;;;;5383380;26;20036;-75
2024/04/18 04:43:33;;;;;;;76.20;43.88;;;4.80;99.90;;;;;;5355805;26;20697;-75
2024/04/18 04:46:13;;;;;;;83.78;47.05;;;4.80;99.90;;;;;;5356079;26;20073;-75
2024/04/18 04:48:40;;;;;;;77.93;44.47;;;4.90;99.90;;;;;;5382905;26;20014;-75
2024/04/18 04:51:11;;;;;;;84.15;45.50;;;4.90;99.90;;;;;;5387064;26;20691;-76
2024/04/18 04:53:38;;;;;;;78.55;46.17;;;4.80;99.90;;;;;;5389920;26;19999;-76
2024/04/18 04:56:08;;;;;;;77.07;45.22;;;4.90;99.90;;;;;;5386122;26;20017;-76
2024/04/18 04:58:35;;;;;;;72.80;46.05;;;4.90;99.90;;;;;;5383368;26;20014;-76
2024/04/18 05:01:03;;;;;;;67.45;46.28;;;5.00;99.90;;;;;;5386511;26;20581;-75
2024/04/18 05:03:38;;;;;;;67.60;45.47;;;5.00;99.90;;;;;;5389529;26;20073;-75
2024/04/18 05:06:24;;;;;;;74.55;47.20;;;5.00;99.90;;;;;;5381824;26;20059;-75
2024/04/18 05:09:11;;;;;;;69.30;44.78;;;4.90;99.90;;;;;;5385628;26;20490;-75
2024/04/18 05:11:38;;;;;;;64.78;43.55;;;5.00;99.90;;;;;;5443876;26;20114;-76
2024/04/18 05:14:26;;;;;;;69.75;44.53;;;5.10;99.90;;;;;;5361421;26;20040;-76
2024/04/18 05:16:53;;;;;;;62.58;40.65;;;5.00;99.90;;;;;;5385209;26;19999;-77
2024/04/18 05:19:20;;;;;;;64.20;42.30;;;5.00;99.90;;;;;;5387566;26;20011;-77
2024/04/18 05:21:48;;;;;;;61.08;40.53;;;5.00;99.90;;;;;;5396630;26;20028;-76
2024/04/18 05:24:33;;;;;;;52.22;37.85;;;4.90;99.90;;;;;;5383122;26;20014;-76
2024/04/18 05:27:02;;;;;;;53.78;38.17;;;4.90;99.90;;;;;;5384870;26;20015;-76
2024/04/18 05:32:16;;;;;;;61.13;40.90;;;4.90;99.90;;;;;;5387439;26;20018;-76
2024/04/18 05:35:02;;;;;;;55.47;38.92;;;5.10;99.90;;;;;;5397283;26;20612;-76
2024/04/18 05:37:30;;;;;;;61.20;40.00;;;5.20;99.90;;;;;;5351659;26;20458;-75
2024/04/18 05:39:57;;;;;;;56.25;38.42;;;5.30;99.90;;;;;;5357673;26;20003;-75
2024/04/18 05:42:24;;;;;;;62.08;39.47;;;5.20;99.90;;;;;;5375554;26;20082;-75
2024/04/18 05:45:06;;;;;;;60.40;38.03;;;5.20;99.90;;;;;;5395407;26;20895;-75
2024/04/18 05:47:54;;;;;;;64.05;37.85;;;5.20;99.90;;;;;;5391023;26;20086;-75
2024/04/18 05:50:21;;;;;;;63.30;38.15;;;5.20;99.90;;;;;;5384615;26;19999;-76
2024/04/18 05:52:48;;;;;;;61.88;38.15;;;5.10;99.90;;;;;;5359987;26;20004;-76
2024/04/18 05:55:21;;;;;;;90.65;40.58;;;5.00;99.90;;;;;;5379614;26;20067;-76
2024/04/18 05:57:48;;;;;;;62.75;38.65;;;5.10;99.90;;;;;;5388962;26;20035;-76
2024/04/18 06:00:34;;;;;;;64.10;37.45;;;5.20;99.90;;;;;;5380049;26;20012;-76
2024/04/18 06:03:01;;;;;;;55.53;36.22;;;5.10;99.90;;;;;;5366862;26;20007;-76
2024/04/18 06:05:29;;;;;;;56.47;36.13;;;5.00;99.90;;;;;;5384099;26;20560;-76
2024/04/18 06:08:25;;;;;;;58.45;36.20;;;4.90;99.90;;;;;;5365706;26;20777;-76
2024/04/18 06:10:52;;;;;;;54.05;34.28;;;5.00;99.90;;;;;;5390178;26;20013;-76
2024/04/18 06:13:25;;;;;;;56.35;35.78;;;5.00;99.90;;;;;;5378762;26;19999;-75
2024/04/18 06:15:52;;;;;;;60.65;39.28;;;5.10;99.90;;;;;;5389872;26;19999;-76
2024/04/18 06:18:20;;;;;;;59.67;36.88;;;5.30;99.90;;;;;;5357732;26;20011;-75
2024/04/18 06:20:51;;;;;;;57.65;36.10;;;5.40;99.90;;;;;;5362328;26;20638;-75
2024/04/18 06:23:18;;;;;;;53.05;34.50;;;5.50;99.90;;;;;;5381272;26;20451;-75
2024/04/18 06:26:05;;;;;;;49.47;34.65;;;5.40;99.90;;;;;;5374923;26;20077;-75
2024/04/18 06:28:33;;;;;;;45.50;34.83;;;5.50;99.90;;;;;;5339671;26;20642;-76
2024/04/18 06:31:01;;;;;;;44.38;33.90;;;5.50;99.90;;;;;;5346780;26;20004;-76
2024/04/18 06:33:29;;;;;;;42.30;32.95;;;5.50;99.90;;;;;;5339023;26;20018;-75
2024/04/18 06:35:58;;;;;;;40.50;32.25;;;5.60;99.90;;;;;;5349366;26;20013;-76
2024/04/18 06:38:25;;;;;;;43.63;32.17;;;5.70;99.90;;;;;;5343655;26;20032;-76
2024/04/18 06:40:52;;;;;;;45.13;33.35;;;5.80;99.90;;;;;;5348050;26;20036;-75
2024/04/18 06:43:19;;;;;;;43.88;34.53;;;5.90;99.90;;;;;;5335976;26;20004;-75
2024/04/18 06:45:50;;;;;;;43.10;34.08;;;6.00;99.90;;;;;;5376262;26;20051;-75
2024/04/18 06:48:18;;;;;;;40.17;32.28;;;6.00;99.90;;;;;;5343898;26;20071;-76
2024/04/18 06:50:45;;;;;;;45.97;33.78;;;6.10;99.90;;;;;;5353793;26;20035;-76
2024/04/18 06:53:12;;;;;;;41.28;33.03;;;6.10;99.90;;;;;;5363697;26;20501;-76
2024/04/18 06:55:39;;;;;;;41.33;30.52;;;6.00;99.90;;;;;;5349038;26;20014;-77
2024/04/18 06:58:07;;;;;;;46.28;31.02;;;5.90;99.90;;;;;;5347181;26;20581;-76
2024/04/18 07:00:35;;;;;;;37.40;30.55;;;6.00;99.90;;;;;;5370910;26;21457;-77
2024/04/18 07:03:06;;;;;;;39.97;31.27;;;6.00;99.90;;;;;;5356348;26;20004;-76
2024/04/18 07:05:49;;;;;;;38.60;31.27;;;5.80;99.90;;;;;;5391890;26;20043;-76
2024/04/18 07:08:19;;;;;;;36.33;30.40;;;5.90;99.90;;;;;;5372520;26;20765;-77
2024/04/18 07:10:46;;;;;;;36.25;30.92;;;6.00;99.90;;;;;;5379770;26;19998;-77
2024/04/18 07:13:29;;;;;;;41.58;31.92;;;6.20;99.90;;;;;;5424090;26;20015;-76
2024/04/18 07:16:03;;;;;;;36.13;32.22;;;6.30;99.90;;;;;;5343199;26;20531;-76
2024/04/18 07:18:49;;;;;;;33.88;30.55;;;6.50;99.90;;;;;;5385084;26;20753;-77
2024/04/18 07:21:16;;;;;;;34.35;31.00;;;6.80;99.90;;;;;;5373544;26;20730;-76
2024/04/18 07:23:44;;;;;;;38.15;32.85;;;6.80;99.90;;;;;;5382322;26;20019;-77
2024/04/18 07:26:11;;;;;;;35.42;32.03;;;6.90;99.90;;;;;;5336840;26;20000;-76
2024/04/18 07:28:38;;;;;;;38.72;34.83;;;6.80;99.90;;;;;;5330476;26;20497;-76
2024/04/18 07:31:05;;;;;;;37.83;33.45;;;6.70;99.90;;;;;;5362784;26;20532;-76
2024/04/18 07:33:33;;;;;;;36.63;33.03;;;6.80;99.90;;;;;;5365083;26;20102;-77
2024/04/18 07:36:14;;;;;;;34.60;31.30;;;6.70;99.90;;;;;;5325343;26;20015;-76
2024/04/18 07:38:42;;;;;;;34.97;31.48;;;6.70;99.90;;;;;;5376433;26;20436;-75
2024/04/18 07:41:10;;;;;;;34.38;30.77;;;6.60;99.90;;;;;;5375199;26;20023;-76
2024/04/18 07:43:37;;;;;;;38.10;32.28;;;6.70;99.90;;;;;;5352873;26;20007;-76
2024/04/18 07:46:04;;;;;;;34.72;31.48;;;6.70;99.90;;;;;;5387505;26;20014;-76
2024/04/18 07:48:33;;;;;;;33.60;30.60;;;6.70;99.90;;;;;;5377202;26;20003;-75
2024/04/18 07:51:02;;;;;;;32.70;29.52;;;6.70;99.90;;;;;;5368573;26;20073;-76
2024/04/18 07:53:29;;;;;;;36.05;33.05;;;7.00;99.90;;;;;;5379442;26;19996;-75
2024/04/18 07:55:57;;;;;;;36.25;33.08;;;7.40;99.90;;;;;;5388786;26;19999;-76
2024/04/18 07:58:26;;;;;;;37.58;34.60;;;7.70;99.90;;;;;;5369031;26;20036;-76
2024/04/18 08:00:54;;;;;;;40.17;37.20;;;7.90;99.90;;;;;;5378992;26;20011;-76
2024/04/18 08:03:23;;;;;;;36.47;33.60;;;7.80;99.90;;;;;;5357398;26;20015;-76
2024/04/18 08:05:54;;;;;;;37.35;34.40;;;7.90;99.90;;;;;;5387074;26;20051;-76
2024/04/18 08:08:25;;;;;;;35.08;32.10;;;7.80;99.90;;;;;;5378555;26;20004;-75
2024/04/18 08:10:56;;;;;;;32.13;29.52;;;7.80;99.90;;;;;;5379766;26;20018;-75
2024/04/18 08:13:26;;;;;;;33.92;31.17;;;7.90;99.90;;;;;;5382441;26;20050;-75
2024/04/18 08:16:01;;;;;;;34.65;31.73;;;8.00;99.90;;;;;;5390914;26;20006;-77
2024/04/18 08:18:30;;;;;;;38.60;35.40;;;8.10;99.90;;;;;;5358220;26;20000;-75
2024/04/18 08:20:58;;;;;;;32.92;30.23;;;7.60;99.90;;;;;;5401168;26;20025;-75
2024/04/18 08:23:26;;;;;;;33.50;30.70;;;7.50;99.90;;;;;;5383333;26;19996;-75
2024/04/18 08:25:54;;;;;;;34.60;31.92;;;7.80;99.90;;;;;;5380447;26;20829;-76
2024/04/18 08:28:21;;;;;;;37.25;34.35;;;8.00;99.90;;;;;;5377564;26;20018;-75
2024/04/18 08:30:48;;;;;;;37.08;34.17;;;8.00;99.90;;;;;;5374867;26;20366;-76
2024/04/18 08:33:16;;;;;;;34.75;32.20;;;8.00;99.90;;;;;;5390193;26;19999;-76
2024/04/18 08:35:44;;;;;;;37.72;35.03;;;7.90;99.90;;;;;;5377018;26;19995;-75
2024/04/18 08:38:12;;;;;;;37.95;35.15;;;7.70;99.90;;;;;;5387641;26;20015;-75
2024/04/18 08:40:44;;;;;;;38.65;35.83;;;7.60;99.90;;;;;;5377149;26;20646;-75
2024/04/18 08:43:12;;;;;;;37.45;34.47;;;7.50;99.90;;;;;;5392525;26;20059;-75
2024/04/18 08:45:40;;;;;;;37.72;34.72;;;7.80;99.90;;;;;;5382824;26;20010;-77
2024/04/18 08:48:10;;;;;;;41.28;37.60;;;8.30;99.90;;;;;;5387372;26;20027;-75
2024/04/18 08:50:41;;;;;;;43.03;40.15;;;8.90;99.90;;;;;;5377172;26;20008;-75
2024/04/18 08:53:09;;;;;;;42.88;40.03;;;9.60;99.90;;;;;;5367708;26;20018;-76
2024/04/18 08:55:40;;;;;;;45.83;42.83;;;9.90;99.90;;;;;;5384245;26;19999;-76
2024/04/18 08:58:11;;;;;;;44.33;41.33;;;9.60;99.90;;;;;;5360806;26;20015;-76
2024/04/18 09:00:41;;;;;;;43.83;41.03;;;9.90;99.90;;;;;;5354890;26;20015;-76
2024/04/18 09:03:10;;;;;;;44.55;41.40;;;10.40;99.90;;;;;;5393621;26;20014;-75
2024/04/18 09:05:38;;;;;;;37.15;34.35;;;10.30;99.90;;;;;;5384647;26;20046;-76
2024/04/18 09:08:09;;;;;;;36.33;33.83;;;10.40;99.90;;;;;;5380552;26;20010;-76
2024/04/18 09:10:38;;;;;;;41.60;38.63;;;9.90;99.90;;;;;;5369199;26;20040;-76
2024/04/18 09:13:06;;;;;;;39.55;36.88;;;9.10;99.90;;;;;;5387761;26;20460;-76
2024/04/18 09:15:33;;;;;;;44.65;41.65;;;8.80;99.90;;;;;;5382476;26;20413;-74
2024/04/18 09:18:08;;;;;;;45.58;42.58;;;8.40;99.90;;;;;;5355310;26;20036;-76
2024/04/18 09:20:38;;;;;;;49.92;46.70;;;8.70;99.90;;;;;;5379068;26;20008;-77
2024/04/18 09:23:06;;;;;;;40.78;38.08;;;9.30;99.90;;;;;;5388904;26;20000;-74
2024/04/18 09:25:33;;;;;;;46.25;43.58;;;9.60;99.90;;;;;;5381971;26;20075;-76
2024/04/18 09:28:06;;;;;;;49.75;46.60;;;9.50;99.90;;;;;;5371996;26;20018;-76
2024/04/18 09:30:37;;;;;;;50.45;47.05;;;9.60;99.90;;;;;;5376088;26;20007;-76
2024/04/18 09:33:05;;;;;;;41.20;38.42;;;9.80;99.90;;;;;;5390987;26;19995;-76
2024/04/18 09:35:34;;;;;;;48.05;45.05;;;9.90;99.90;;;;;;5385580;26;19996;-76
2024/04/18 09:38:05;;;;;;;49.38;46.22;;;9.90;99.90;;;;;;5410971;26;20544;-74
2024/04/18 09:40:43;;;;;;;46.77;43.73;;;9.90;99.90;;;;;;5367879;26;20087;-79
2024/04/18 09:43:16;;;;;;;42.60;39.70;;;9.80;99.90;;;;;;5392278;26;20223;-76
2024/04/18 09:46:10;;;;;;;41.05;38.15;;;10.00;99.90;;;;;;5328237;26;20315;-76
2024/04/18 09:48:39;;;;;;;41.08;38.38;;;9.60;99.90;;;;;;5345106;26;19996;-75
2024/04/18 09:51:06;;;;;;;39.35;36.75;;;9.70;99.90;;;;;;5357763;26;20003;-77
2024/04/18 09:53:35;;;;;;;39.83;36.97;;;9.70;99.90;;;;;;5379448;26;20018;-77
2024/04/18 09:56:05;;;;;;;39.92;36.92;;;9.50;99.90;;;;;;5383885;26;19999;-76
2024/04/18 09:58:32;;;;;;;38.97;35.95;;;9.60;99.90;;;;;;5372824;26;20008;-77
2024/04/18 10:01:00;;;;;;;38.47;35.80;;;9.30;99.90;;;;;;5382372;26;20011;-76
2024/04/18 10:03:28;;;;;;;38.72;36.13;;;9.10;99.90;;;;;;5380317;26;19995;-77
2024/04/18 10:06:00;;;;;;;36.70;34.20;;;9.00;99.90;;;;;;5391219;26;20015;-76
2024/04/18 10:08:32;;;;;;;37.90;34.97;;;8.80;99.90;;;;;;5379727;26;20019;-76
2024/04/18 10:11:00;;;;;;;36.55;34.03;;;8.80;99.90;;;;;;5378891;26;21778;-77
2024/04/18 10:13:28;;;;;;;37.00;34.40;;;8.70;99.90;;;;;;5380799;26;20538;-76
2024/04/18 10:16:06;;;;;;;36.60;33.72;;;8.50;99.90;;;;;;5382251;26;20091;-76
2024/04/18 10:18:37;;;;;;;37.08;34.22;;;8.50;99.90;;;;;;5380617;26;20011;-77
2024/04/18 10:21:25;;;;;;;37.85;35.08;;;8.50;99.90;;;;;;5383095;26;20003;-76
2024/04/18 10:24:09;;;;;;;39.78;36.88;;;8.40;99.90;;;;;;5390516;26;19999;-77
2024/04/18 10:26:38;;;;;;;38.05;35.05;;;8.50;99.90;;;;;;5402297;26;19999;-75
2024/04/18 10:29:22;;;;;;;39.53;36.33;;;8.60;99.90;;;;;;5324157;26;20014;-76
2024/04/18 10:31:49;;;;;;;39.55;36.70;;;8.80;99.90;;;;;;5373334;26;20037;-76
2024/04/18 10:34:21;;;;;;;40.15;37.42;;;8.90;99.90;;;;;;5387317;26;20015;-76
2024/04/18 10:36:48;;;;;;;39.20;36.70;;;8.90;99.90;;;;;;5371501;26;20035;-74
2024/04/18 10:39:34;;;;;;;47.20;44.17;;;9.10;99.90;;;;;;5345843;26;20018;-76
2024/04/18 10:42:06;;;;;;;38.63;35.92;;;9.30;99.90;;;;;;5384828;26;20563;-77
2024/04/18 10:44:33;;;;;;;38.50;35.47;;;9.90;99.90;;;;;;5385086;26;20018;-76
2024/04/18 10:47:01;;;;;;;44.25;41.35;;;10.00;99.90;;;;;;5363153;26;20004;-75
2024/04/18 10:49:30;;;;;;;45.92;43.03;;;10.20;99.90;;;;;;5318746;26;20019;-76
2024/04/18 10:51:58;;;;;;;45.80;42.72;;;10.40;99.90;;;;;;5394275;26;20082;-76
2024/04/18 10:54:26;;;;;;;49.20;46.10;;;10.80;99.90;;;;;;5323872;26;20001;-77
2024/04/18 10:56:55;;;;;;;43.45;40.35;;;11.40;99.90;;;;;;5341440;26;20001;-77
2024/04/18 10:59:23;;;;;;;42.58;39.70;;;11.60;99.90;;;;;;5354919;26;20409;-74
2024/04/18 11:01:50;;;;;;;43.30;40.30;;;11.40;99.90;;;;;;5381368;26;21021;-75
2024/04/18 11:04:17;;;;;;;47.22;44.03;;;10.80;99.90;;;;;;5394660;26;20014;-75
2024/04/18 11:06:46;;;;;;;39.88;36.78;;;10.40;99.90;;;;;;5354685;26;20406;-78
2024/04/18 11:09:16;;;;;;;37.40;34.38;;;10.40;99.90;;;;;;5340997;26;20011;-77
2024/04/18 11:11:43;;;;;;;38.53;35.80;;;10.20;99.90;;;;;;5328654;26;20043;-76
2024/04/18 11:14:10;;;;;;;38.67;35.65;;;10.10;99.90;;;;;;5322869;26;20022;-76
2024/04/18 11:16:40;;;;;;;38.20;35.30;;;10.00;99.90;;;;;;5310060;26;20077;-75
2024/04/18 11:19:08;;;;;;;45.53;42.40;;;9.80;99.90;;;;;;5354525;26;20665;-76
2024/04/18 11:21:36;;;;;;;38.88;36.05;;;9.70;99.90;;;;;;5361278;26;20008;-76
2024/04/18 11:24:03;;;;;;;37.90;34.40;;;9.40;99.90;;;;;;5300834;26;20020;-75
2024/04/18 11:26:31;;;;;;;44.92;40.83;;;9.10;99.90;;;;;;5334806;26;20759;-77
2024/04/18 11:29:01;;;;;;;47.13;42.78;;;8.50;99.90;;;;;;5341838;26;20004;-77
2024/04/18 11:31:28;;;;;;;40.25;36.70;;;7.50;99.90;;;;;;5375943;26;20003;-78
2024/04/18 11:33:56;;;;;;;32.67;29.67;;;7.20;99.90;;;;;;5343457;26;20015;-79
2024/04/18 11:36:24;;;;;;;31.58;28.85;;;7.10;99.90;;;;;;5377007;26;20288;-78
2024/04/18 11:38:51;;;;;;;33.63;30.15;;;7.10;99.90;;;;;;5389837;26;20057;-78
2024/04/18 11:41:18;;;;;;;31.23;28.27;;;7.30;99.90;;;;;;5381206;26;20014;-78
2024/04/18 11:43:47;;;;;;;33.13;30.33;;;7.60;99.90;;;;;;5394932;26;20076;-80
2024/04/18 11:46:14;;;;;;;32.03;29.23;;;7.70;99.90;;;;;;5377927;26;20568;-79
2024/04/18 11:48:41;;;;;;;34.78;31.67;;;8.00;99.90;;;;;;5348931;26;20047;-79
2024/04/18 11:51:08;;;;;;;34.75;31.38;;;8.20;99.90;;;;;;5387637;26;19999;-79
2024/04/18 11:53:35;;;;;;;34.83;31.60;;;8.40;99.90;;;;;;5343324;26;20735;-81
2024/04/18 11:56:04;;;;;;;35.58;31.85;;;8.60;99.90;;;;;;5365421;26;20003;-77
2024/04/18 11:58:32;;;;;;;35.33;32.10;;;8.70;99.90;;;;;;5369878;26;20044;-81
2024/04/18 12:01:01;;;;;;;33.13;30.05;;;8.80;99.90;;;;;;5356973;26;20019;-78
2024/04/18 12:03:39;;;;;;;35.15;32.30;;;8.90;99.90;;;;;;5341937;26;20000;-79
2024/04/18 12:06:25;;;;;;;35.17;32.35;;;9.10;99.90;;;;;;5342457;26;20000;-78
2024/04/18 12:08:52;;;;;;;31.35;28.98;;;9.50;99.90;;;;;;5344788;26;20024;-79
2024/04/18 12:11:30;;;;;;;33.92;31.52;;;9.90;99.90;;;;;;5352577;26;19999;-78
2024/04/18 12:14:12;;;;;;;37.85;35.05;;;10.00;99.90;;;;;;5352516;26;20091;-79
2024/04/18 12:16:55;;;;;;;38.15;35.67;;;10.00;99.90;;;;;;5336170;26;20011;-80
2024/04/18 12:19:43;;;;;;;40.47;37.78;;;10.30;99.90;;;;;;5395239;26;20438;-77
2024/04/18 12:22:29;;;;;;;40.25;37.58;;;10.20;99.90;;;;;;5389558;26;20480;-78
2024/04/18 12:25:16;;;;;;;42.55;39.55;;;10.20;99.90;;;;;;5354081;26;20828;-79
2024/04/18 12:27:45;;;;;;;43.15;39.70;;;10.00;99.90;;;;;;5347316;26;20015;-79
2024/04/18 12:30:31;;;;;;;39.10;36.33;;;10.10;99.90;;;;;;5356271;26;19999;-76
2024/04/18 12:33:17;;;;;;;39.45;37.05;;;10.10;99.90;;;;;;5340646;26;20004;-78
2024/04/18 12:35:47;;;;;;;39.33;36.25;;;10.10;99.90;;;;;;5344066;26;20010;-78
2024/04/18 12:38:14;;;;;;;40.20;37.10;;;10.00;99.90;;;;;;5355830;26;21676;-78
2024/04/18 12:40:42;;;;;;;42.83;40.30;;;9.80;99.90;;;;;;5342701;26;20899;-76
2024/04/18 12:43:09;;;;;;;40.10;37.70;;;9.70;99.90;;;;;;5378369;26;20001;-77
2024/04/18 12:45:52;;;;;;;38.67;35.92;;;9.80;99.90;;;;;;5351919;26;20000;-77
2024/04/18 12:48:48;;;;;;;42.75;39.97;;;10.00;99.90;;;;;;5360109;26;20077;-79
2024/04/18 12:51:15;;;;;;;43.50;41.10;;;10.00;99.90;;;;;;5383350;26;19999;-77
2024/04/18 12:53:42;;;;;;;41.03;38.33;;;10.10;99.90;;;;;;5339162;26;20004;-76
2024/04/18 12:56:11;;;;;;;39.72;37.25;;;10.40;99.90;;;;;;5405590;26;20018;-78
2024/04/18 12:58:41;;;;;;;40.90;38.28;;;10.30;99.90;;;;;;5364499;26;20034;-76
2024/04/18 13:01:09;;;;;;;41.38;37.92;;;10.20;99.90;;;;;;5319178;26;20782;-77
2024/04/18 13:03:56;;;;;;;40.42;37.53;;;10.10;99.90;;;;;;5382950;26;20011;-76